createdAt,value
2022-08-11T00:02:19.043Z,39.69
2022-08-11T00:04:45.174Z,39.33
2022-08-11T00:07:11.304Z,39.41
2022-08-11T00:09:39.716Z,39.65
2022-08-11T00:12:06.218Z,39.53
2022-08-11T00:14:37.225Z,39.32
2022-08-11T00:17:04.054Z,39.53
2022-08-11T00:20:15.315Z,39.37
2022-08-11T00:22:16.315Z,39.37
2022-08-11T00:24:54.733Z,39.66
2022-08-11T00:27:22.302Z,39.85
2022-08-11T00:29:51.613Z,39.77
2022-08-11T00:32:18.058Z,39.71
2022-08-11T00:34:44.210Z,39.50
2022-08-11T00:37:10.351Z,39.75
2022-08-11T00:39:36.563Z,39.63
2022-08-11T00:42:02.838Z,39.18
2022-08-11T00:44:29.004Z,39.12
2022-08-11T00:46:55.182Z,38.85
2022-08-11T00:49:21.347Z,38.63
2022-08-11T00:52:03.822Z,38.79
2022-08-11T00:54:32.906Z,38.57
2022-08-11T00:56:59.451Z,38.34
2022-08-11T00:59:34.891Z,38.30
2022-08-11T01:02:01.819Z,38.40
2022-08-11T01:04:27.947Z,38.42
2022-08-11T01:06:54.081Z,38.36
2022-08-11T01:09:22.240Z,39.03
2022-08-11T01:11:55.413Z,39.99
2022-08-11T01:14:34.180Z,40.66
2022-08-11T01:17:00.778Z,40.77
2022-08-11T01:19:26.979Z,41.04
2022-08-11T01:21:53.118Z,41.04
2022-08-11T01:24:21.251Z,41.00
2022-08-11T01:26:47.410Z,41.28
2022-08-11T01:29:13.541Z,41.33
2022-08-11T01:31:39.681Z,41.60
2022-08-11T01:34:05.854Z,41.88
2022-08-11T01:36:31.998Z,42.08
2022-08-11T01:38:58.116Z,42.27
2022-08-11T01:41:24.273Z,42.39
2022-08-11T01:43:50.400Z,42.56
2022-08-11T01:46:16.540Z,42.69
2022-08-11T01:48:44.825Z,42.79
2022-08-11T01:51:16.758Z,42.75
2022-08-11T01:53:43.471Z,42.96
2022-08-11T01:56:09.608Z,42.97
2022-08-11T01:58:43.108Z,43.19
2022-08-11T02:01:10.567Z,43.24
2022-08-11T02:03:36.733Z,43.30
2022-08-11T02:06:02.873Z,43.67
2022-08-11T02:08:32.890Z,43.88
2022-08-11T02:10:59.796Z,43.97
2022-08-11T02:13:32.399Z,44.12
2022-08-11T02:16:01.894Z,44.28
2022-08-11T02:18:28.022Z,43.99
2022-08-11T02:20:54.225Z,43.85
2022-08-11T02:24:03.950Z,43.85
2022-08-11T02:26:07.538Z,43.54
2022-08-11T02:28:38.407Z,43.12
2022-08-11T02:31:06.324Z,43.29
2022-08-11T02:33:36.616Z,43.28
2022-08-11T02:36:02.891Z,43.26
2022-08-11T02:38:29.025Z,43.34
2022-08-11T02:40:55.184Z,43.33
2022-08-11T02:43:21.329Z,43.26
2022-08-11T02:45:47.467Z,43.16
2022-08-11T02:48:13.619Z,43.27
2022-08-11T02:50:39.754Z,43.29
2022-08-11T02:53:05.886Z,43.28
2022-08-11T02:55:44.433Z,43.61
2022-08-11T02:58:19.970Z,43.70
2022-08-11T03:00:53.131Z,43.71
2022-08-11T03:03:19.270Z,43.36
2022-08-11T03:05:45.419Z,43.80
2022-08-11T03:08:13.587Z,43.71
2022-08-11T03:10:39.731Z,43.66
2022-08-11T03:13:05.870Z,43.60
2022-08-11T03:15:32.033Z,43.43
2022-08-11T03:17:58.159Z,43.82
2022-08-11T03:20:24.285Z,43.59
2022-08-11T03:22:50.437Z,43.70
2022-08-11T03:25:16.567Z,43.69
2022-08-11T03:27:42.702Z,43.79
2022-08-11T03:30:08.865Z,43.91
2022-08-11T03:32:34.995Z,43.87
2022-08-11T03:35:01.118Z,44.01
2022-08-11T03:37:27.273Z,43.87
2022-08-11T03:39:56.380Z,43.85
2022-08-11T03:42:23.030Z,44.11
2022-08-11T03:44:49.180Z,44.22
2022-08-11T03:47:15.298Z,44.33
2022-08-11T03:49:41.435Z,44.25
2022-08-11T03:52:07.873Z,44.58
2022-08-11T03:54:34.001Z,44.47
2022-08-11T03:57:00.150Z,44.55
2022-08-11T03:59:26.319Z,44.50
2022-08-11T04:01:52.511Z,44.45
2022-08-11T04:04:18.676Z,44.43
2022-08-11T04:06:44.823Z,44.47
2022-08-11T04:09:10.959Z,44.74
2022-08-11T04:11:39.440Z,44.84
2022-08-11T04:14:05.650Z,44.95
2022-08-11T04:16:31.781Z,44.96
2022-08-11T04:18:57.922Z,45.17
2022-08-11T04:21:24.073Z,45.19
2022-08-11T04:24:35.360Z,45.23
2022-08-11T04:26:36.349Z,45.21
2022-08-11T04:29:09.511Z,45.19
2022-08-11T04:31:52.041Z,45.30
2022-08-11T04:34:18.862Z,45.35
2022-08-11T04:36:45.018Z,45.39
2022-08-11T04:39:11.225Z,45.38
2022-08-11T04:41:37.392Z,45.18
2022-08-11T04:44:06.169Z,45.26
2022-08-11T04:46:32.624Z,45.30
2022-08-11T04:48:58.970Z,45.50
2022-08-11T04:51:25.157Z,45.61
2022-08-11T04:53:52.327Z,45.79
2022-08-11T04:56:18.632Z,45.91
2022-08-11T04:58:44.789Z,45.82
2022-08-11T05:01:10.962Z,46.00
2022-08-11T05:03:37.105Z,45.83
2022-08-11T05:06:03.285Z,45.85
2022-08-11T05:08:29.440Z,45.78
2022-08-11T05:10:55.586Z,45.88
2022-08-11T05:13:21.766Z,45.92
2022-08-11T05:15:51.426Z,45.91
2022-08-11T05:18:17.815Z,45.96
2022-08-11T05:20:43.970Z,46.18
2022-08-11T05:23:10.095Z,46.41
2022-08-11T05:26:42.953Z,46.43
2022-08-11T05:28:22.374Z,46.73
2022-08-11T05:30:48.513Z,46.78
2022-08-11T05:33:14.645Z,46.93
2022-08-11T05:36:01.594Z,46.96
2022-08-11T05:38:26.967Z,47.22
2022-08-11T05:40:53.300Z,47.28
2022-08-11T05:43:25.934Z,47.46
2022-08-11T05:46:02.603Z,47.72
2022-08-11T05:48:31.068Z,47.71
2022-08-11T05:50:57.184Z,47.93
2022-08-11T05:53:23.454Z,48.01
2022-08-11T05:55:58.396Z,47.92
2022-08-11T05:58:29.790Z,47.93
2022-08-11T06:00:55.950Z,47.95
2022-08-11T06:03:22.147Z,47.97
2022-08-11T06:05:48.291Z,47.82
2022-08-11T06:08:17.915Z,47.61
2022-08-11T06:10:44.045Z,47.72
2022-08-11T06:13:10.185Z,47.62
2022-08-11T06:15:36.365Z,47.66
2022-08-11T06:18:02.506Z,47.50
2022-08-11T06:20:28.644Z,47.35
2022-08-11T06:22:54.794Z,47.33
2022-08-11T06:25:20.930Z,47.17
2022-08-11T06:27:47.097Z,47.31
2022-08-11T06:30:13.248Z,47.33
2022-08-11T06:32:39.641Z,47.22
2022-08-11T06:35:05.870Z,47.21
2022-08-11T06:37:36.254Z,47.08
2022-08-11T06:40:02.762Z,46.77
2022-08-11T06:42:28.988Z,46.59
2022-08-11T06:44:55.178Z,46.73
2022-08-11T06:47:21.317Z,46.64
2022-08-11T06:49:47.448Z,46.66
2022-08-11T06:52:34.870Z,46.45
2022-08-11T06:54:59.716Z,46.20
2022-08-11T06:57:29.906Z,45.79
2022-08-11T06:59:56.565Z,45.74
2022-08-11T07:02:22.702Z,45.49
2022-08-11T07:04:48.845Z,45.60
2022-08-11T07:07:14.995Z,45.72
2022-08-11T07:09:41.139Z,45.83
2022-08-11T07:12:07.540Z,46.17
2022-08-11T07:14:38.226Z,46.13
2022-08-11T07:17:04.682Z,46.21
2022-08-11T07:19:30.856Z,46.31
2022-08-11T07:22:01.280Z,46.25
2022-08-11T07:24:58.663Z,46.09
2022-08-11T07:27:15.934Z,45.93
2022-08-11T07:29:42.071Z,46.01
2022-08-11T07:32:08.224Z,45.69
2022-08-11T07:34:34.404Z,45.60
2022-08-11T07:37:00.537Z,45.39
2022-08-11T07:39:26.797Z,44.74
2022-08-11T07:41:53.603Z,44.54
2022-08-11T07:44:19.737Z,44.26
2022-08-11T07:46:45.877Z,44.07
2022-08-11T07:49:12.012Z,43.84
2022-08-11T07:51:38.153Z,43.28
2022-08-11T07:54:16.675Z,43.04
2022-08-11T07:56:55.283Z,42.68
2022-08-11T08:00:00.175Z,42.34
2022-08-11T08:02:16.226Z,41.76
2022-08-11T08:04:46.858Z,41.57
2022-08-11T08:07:13.553Z,41.19
2022-08-11T08:09:39.695Z,41.26
2022-08-11T08:12:05.840Z,40.93
2022-08-11T08:14:31.982Z,40.60
2022-08-11T08:17:00.041Z,40.08
2022-08-11T08:19:26.191Z,40.01
2022-08-11T08:21:52.321Z,39.54
2022-08-11T08:24:18.477Z,39.49
2022-08-11T08:26:51.456Z,39.40
2022-08-11T08:29:18.106Z,39.16
2022-08-11T08:31:44.244Z,38.90
2022-08-11T08:34:10.376Z,38.64
2022-08-11T08:36:36.500Z,38.22
2022-08-11T08:39:02.650Z,37.90
2022-08-11T08:41:28.788Z,37.46
2022-08-11T08:43:56.424Z,36.98
2022-08-11T08:46:24.029Z,36.74
2022-08-11T08:48:50.159Z,36.06
2022-08-11T08:51:19.360Z,35.52
2022-08-11T08:53:53.267Z,35.04
2022-08-11T08:56:22.671Z,34.86
2022-08-11T08:58:49.413Z,35.14
2022-08-11T09:01:17.939Z,34.99
2022-08-11T09:04:04.631Z,34.70
2022-08-11T09:06:30.229Z,34.34
2022-08-11T09:08:56.366Z,34.18
2022-08-11T09:11:22.488Z,34.04
2022-08-11T09:14:04.718Z,33.73
2022-08-11T09:16:33.625Z,33.62
2022-08-11T09:19:00.060Z,33.31
2022-08-11T09:21:46.298Z,33.00
2022-08-11T09:24:21.896Z,32.98
2022-08-11T09:26:51.898Z,32.87
2022-08-11T09:29:18.096Z,32.45
2022-08-11T09:31:44.230Z,32.41
2022-08-11T09:34:10.371Z,32.62
2022-08-11T09:36:36.542Z,32.41
2022-08-11T09:39:02.669Z,32.20
2022-08-11T09:41:28.790Z,32.20
2022-08-11T09:44:14.912Z,32.15
2022-08-11T09:46:41.034Z,31.78
2022-08-11T09:49:07.160Z,31.68
2022-08-11T09:51:33.314Z,31.40
2022-08-11T09:54:02.810Z,31.21
2022-08-11T09:56:30.035Z,31.23
2022-08-11T09:58:56.194Z,30.87
2022-08-11T10:01:22.353Z,31.11
2022-08-11T10:03:48.553Z,30.57
2022-08-11T10:06:14.752Z,30.10
2022-08-11T10:08:41.228Z,30.11
2022-08-11T10:11:07.381Z,30.18
2022-08-11T10:13:44.088Z,29.81
2022-08-11T10:16:20.665Z,29.59
2022-08-11T10:18:46.826Z,29.42
2022-08-11T10:21:12.959Z,28.82
2022-08-11T10:24:00.974Z,28.92
2022-08-11T10:26:26.683Z,28.55
2022-08-11T10:29:12.104Z,28.97
2022-08-11T10:31:56.963Z,28.17
2022-08-11T10:34:25.061Z,28.51
2022-08-11T10:36:54.523Z,28.14
2022-08-11T10:39:20.705Z,27.87
2022-08-11T10:42:03.461Z,28.16
2022-08-11T10:44:33.008Z,27.98
2022-08-11T10:46:59.168Z,27.89
2022-08-11T10:49:25.302Z,28.17
2022-08-11T10:51:53.691Z,28.15
2022-08-11T10:54:20.112Z,28.10
2022-08-11T10:56:46.247Z,28.26
2022-08-11T10:59:12.398Z,28.41
2022-08-11T11:01:38.581Z,28.16
2022-08-11T11:04:04.759Z,28.16
2022-08-11T11:06:31.416Z,27.61
2022-08-11T11:08:58.927Z,27.36
2022-08-11T11:11:27.878Z,27.73
2022-08-11T11:13:55.270Z,27.65
2022-08-11T11:16:23.466Z,27.70
2022-08-11T11:19:00.513Z,27.15
2022-08-11T11:21:27.472Z,27.22
2022-08-11T11:23:53.605Z,27.44
2022-08-11T11:26:27.118Z,27.56
2022-08-11T11:28:53.939Z,27.59
2022-08-11T11:31:21.011Z,27.66
2022-08-11T11:34:06.810Z,27.37
2022-08-11T11:36:33.332Z,27.33
2022-08-11T11:38:59.458Z,27.13
2022-08-11T11:41:25.607Z,27.38
2022-08-11T11:43:51.761Z,27.10
2022-08-11T11:46:17.886Z,27.14
2022-08-11T11:48:44.005Z,27.22
2022-08-11T11:51:10.177Z,27.03
2022-08-11T11:53:36.310Z,27.07
2022-08-11T11:56:02.458Z,27.30
2022-08-11T11:58:28.617Z,27.25
2022-08-11T12:00:56.731Z,26.95
2022-08-11T12:03:22.896Z,27.08
2022-08-11T12:05:49.099Z,26.88
2022-08-11T12:08:15.268Z,26.72
2022-08-11T12:10:41.392Z,26.72
2022-08-11T12:13:07.576Z,26.65
2022-08-11T12:16:31.802Z,26.58
2022-08-11T12:18:19.880Z,26.32
2022-08-11T12:20:46.030Z,25.78
2022-08-11T12:23:14.625Z,25.76
2022-08-11T12:25:41.464Z,25.69
2022-08-11T12:28:07.608Z,25.65
2022-08-11T12:30:33.845Z,25.71
2022-08-11T12:33:00.056Z,26.13
2022-08-11T12:35:26.217Z,26.11
2022-08-11T12:37:54.254Z,26.03
2022-08-11T12:40:49.793Z,26.04
2022-08-11T12:43:22.074Z,26.01
2022-08-11T12:45:50.385Z,25.64
2022-08-11T12:49:00.506Z,25.58
2022-08-11T12:51:02.669Z,25.57
2022-08-11T12:53:28.816Z,25.50
2022-08-11T12:56:03.618Z,25.43
2022-08-11T12:58:34.365Z,25.86
2022-08-11T13:01:00.595Z,25.91
2022-08-11T13:03:26.757Z,25.79
2022-08-11T13:05:52.962Z,25.48
2022-08-11T13:08:19.120Z,24.82
2022-08-11T13:10:45.293Z,25.16
2022-08-11T13:13:55.653Z,25.44
2022-08-11T13:15:57.814Z,25.43
2022-08-11T13:18:23.965Z,24.75
2022-08-11T13:20:50.127Z,24.84
2022-08-11T13:23:16.264Z,24.51
2022-08-11T13:25:42.411Z,24.81
2022-08-11T13:28:08.549Z,25.08
2022-08-11T13:30:39.085Z,25.23
2022-08-11T13:33:06.904Z,25.46
2022-08-11T13:35:33.074Z,25.45
2022-08-11T13:38:17.905Z,25.39
2022-08-11T13:40:55.657Z,24.94
2022-08-11T13:43:22.466Z,24.46
2022-08-11T13:45:48.689Z,24.57
2022-08-11T13:48:14.837Z,24.98
2022-08-11T13:50:40.987Z,24.70
2022-08-11T13:53:07.165Z,24.79
2022-08-11T13:55:51.198Z,25.00
2022-08-11T13:58:40.845Z,24.60
2022-08-11T14:01:16.775Z,24.79
2022-08-11T14:04:30.909Z,24.33
2022-08-11T14:06:37.359Z,24.21
2022-08-11T14:09:03.554Z,24.20
2022-08-11T14:12:21.590Z,23.99
2022-08-11T14:14:16.145Z,24.17
2022-08-11T14:16:42.319Z,24.10
2022-08-11T14:19:08.453Z,24.21
2022-08-11T14:21:34.597Z,23.79
2022-08-11T14:24:01.354Z,23.66
2022-08-11T14:26:27.658Z,23.52
2022-08-11T14:28:53.814Z,23.19
2022-08-11T14:31:19.954Z,23.01
2022-08-11T14:33:59.564Z,22.87
2022-08-11T14:36:27.860Z,22.45
2022-08-11T14:38:53.992Z,22.05
2022-08-11T14:41:20.179Z,22.44
2022-08-11T14:44:12.184Z,22.34
2022-08-11T14:49:03.544Z,22.22
2022-08-11T14:51:29.666Z,22.32
2022-08-11T14:53:58.719Z,21.72
2022-08-11T14:56:25.199Z,22.01
2022-08-11T14:58:51.341Z,21.74
2022-08-11T15:01:17.602Z,21.40
2022-08-11T15:04:06.154Z,21.27
2022-08-11T15:06:29.980Z,21.14
2022-08-11T15:08:56.149Z,20.85
2022-08-11T15:11:22.305Z,20.47
2022-08-11T15:13:48.457Z,20.40
2022-08-11T15:16:15.131Z,20.40
2022-08-11T15:18:41.274Z,20.17
2022-08-11T15:21:07.417Z,19.70
2022-08-11T15:23:33.578Z,19.27
2022-08-11T15:25:59.736Z,19.53
2022-08-11T15:28:25.868Z,19.26
2022-08-11T15:30:55.125Z,19.33
2022-08-11T15:33:21.286Z,18.98
2022-08-11T15:35:47.412Z,19.07
2022-08-11T15:38:13.549Z,18.78
2022-08-11T15:40:39.721Z,18.58
2022-08-11T15:43:12.880Z,18.26
2022-08-11T15:45:39.185Z,18.54
2022-08-11T15:48:07.762Z,18.52
2022-08-11T15:50:36.779Z,17.62
2022-08-11T15:53:03.023Z,17.87
2022-08-11T15:55:29.165Z,17.95
2022-08-11T15:57:55.295Z,17.78
2022-08-11T16:00:24.429Z,17.68
2022-08-11T16:02:50.782Z,17.68
2022-08-11T16:05:45.332Z,17.26
2022-08-11T16:08:03.536Z,17.62
2022-08-11T16:10:29.682Z,17.62
2022-08-11T16:12:59.749Z,16.97
2022-08-11T16:15:25.898Z,17.37
2022-08-11T16:17:52.056Z,17.49
2022-08-11T16:20:18.209Z,17.08
2022-08-11T16:22:55.275Z,16.91
2022-08-11T16:27:05.293Z,16.57
2022-08-11T16:28:14.674Z,16.33
2022-08-11T16:30:40.855Z,16.37
2022-08-11T16:33:48.755Z,15.89
2022-08-11T16:35:53.137Z,15.51
2022-08-11T16:38:19.302Z,15.41
2022-08-11T16:40:45.439Z,15.39
2022-08-11T16:43:11.886Z,15.53
2022-08-11T16:45:38.074Z,15.64
2022-08-11T16:48:36.060Z,15.95
2022-08-11T16:50:50.374Z,15.73
2022-08-11T16:53:16.496Z,16.00
2022-08-11T16:55:52.669Z,16.28
2022-08-11T16:58:19.179Z,16.37
2022-08-11T17:00:45.889Z,16.31
2022-08-11T17:03:12.028Z,16.11
2022-08-11T17:05:53.683Z,16.49
2022-08-11T17:08:20.909Z,16.65
2022-08-11T17:10:54.552Z,16.30
2022-08-11T17:13:22.733Z,16.26
2022-08-11T17:15:50.862Z,16.21
2022-08-11T17:18:17.292Z,16.33
2022-08-11T17:20:44.273Z,16.43
2022-08-11T17:23:12.969Z,16.50
2022-08-11T17:25:59.886Z,16.64
2022-08-11T17:28:26.094Z,16.24
2022-08-11T17:30:52.285Z,16.27
2022-08-11T17:33:18.426Z,16.59
2022-08-11T17:35:44.605Z,16.55
2022-08-11T17:38:10.826Z,16.31
2022-08-11T17:40:36.944Z,16.37
2022-08-11T17:43:03.088Z,16.61
2022-08-11T17:45:29.711Z,15.99
2022-08-11T17:47:55.846Z,16.05
2022-08-11T17:50:21.977Z,16.41
2022-08-11T17:52:48.158Z,16.11
2022-08-11T17:55:14.280Z,16.14
2022-08-11T17:57:44.373Z,16.28
2022-08-11T18:00:13.540Z,16.75
2022-08-11T18:02:39.677Z,16.58
2022-08-11T18:05:08.504Z,16.78
2022-08-11T18:07:39.244Z,16.91
2022-08-11T18:10:05.506Z,17.00
2022-08-11T18:12:31.670Z,17.06
2022-08-11T18:14:58.114Z,17.06
2022-08-11T18:17:24.236Z,17.35
2022-08-11T18:19:50.439Z,17.55
2022-08-11T18:22:16.612Z,17.81
2022-08-11T18:24:42.738Z,18.00
2022-08-11T18:27:08.879Z,17.83
2022-08-11T18:29:42.270Z,18.20
2022-08-11T18:32:08.604Z,18.29
2022-08-11T18:34:34.735Z,18.63
2022-08-11T18:37:00.892Z,18.95
2022-08-11T18:39:27.085Z,19.12
2022-08-11T18:41:53.258Z,19.25
2022-08-11T18:44:19.402Z,19.50
2022-08-11T18:46:45.530Z,19.88
2022-08-11T18:49:15.771Z,20.12
2022-08-11T18:51:42.205Z,20.72
2022-08-11T18:54:08.378Z,21.01
2022-08-11T18:56:34.526Z,21.36
2022-08-11T18:59:00.674Z,21.41
2022-08-11T19:01:26.865Z,21.79
2022-08-11T19:03:53.033Z,22.07
2022-08-11T19:06:39.170Z,22.54
2022-08-11T19:09:05.831Z,22.78
2022-08-11T19:11:31.993Z,23.13
2022-08-11T19:13:58.104Z,22.97
2022-08-11T19:16:24.274Z,23.32
2022-08-11T19:18:50.433Z,23.78
2022-08-11T19:21:16.566Z,23.99
2022-08-11T19:23:42.703Z,24.29
2022-08-11T19:26:08.860Z,24.41
2022-08-11T19:28:34.993Z,24.71
2022-08-11T19:31:01.117Z,24.69
2022-08-11T19:33:57.320Z,25.24
2022-08-11T19:36:13.402Z,25.22
2022-08-11T19:38:39.569Z,25.42
2022-08-11T19:41:05.743Z,25.47
2022-08-11T19:43:31.889Z,25.95
2022-08-11T19:45:58.519Z,25.99
2022-08-11T19:48:32.696Z,26.12
2022-08-11T19:50:58.976Z,26.10
2022-08-11T19:53:25.146Z,26.69
2022-08-11T19:55:51.322Z,26.74
2022-08-11T19:58:17.466Z,27.05
2022-08-11T20:00:43.625Z,27.31
2022-08-11T20:03:09.781Z,27.70
2022-08-11T20:05:35.905Z,27.88
2022-08-11T20:08:02.070Z,28.02
2022-08-11T20:10:28.196Z,28.25
2022-08-11T20:12:54.335Z,28.39
2022-08-11T20:15:20.520Z,28.56
2022-08-11T20:17:46.866Z,28.85
2022-08-11T20:20:13.031Z,28.96
2022-08-11T20:22:39.650Z,29.16
2022-08-11T20:25:05.986Z,29.43
2022-08-11T20:27:32.118Z,29.48
2022-08-11T20:29:58.277Z,29.67
2022-08-11T20:32:24.410Z,29.82
2022-08-11T20:34:50.539Z,29.97
2022-08-11T20:37:19.182Z,30.08
2022-08-11T20:39:45.355Z,30.24
2022-08-11T20:42:11.495Z,30.37
2022-08-11T20:44:37.636Z,30.49
2022-08-11T20:47:03.765Z,30.74
2022-08-11T20:49:41.307Z,30.79
2022-08-11T20:52:14.967Z,30.87
2022-08-11T20:54:44.723Z,31.04
2022-08-11T20:57:12.867Z,31.27
2022-08-11T20:59:49.979Z,31.35
2022-08-11T21:02:22.930Z,31.42
2022-08-11T21:04:54.762Z,31.59
2022-08-11T21:07:28.507Z,31.67
2022-08-11T21:09:58.076Z,31.88
2022-08-11T21:12:25.305Z,32.00
2022-08-11T21:14:55.014Z,32.10
2022-08-11T21:17:26.872Z,32.28
2022-08-11T21:19:59.752Z,32.33
2022-08-11T21:22:33.249Z,32.58
2022-08-11T21:24:59.386Z,32.73
2022-08-11T21:27:25.513Z,32.85
2022-08-11T21:29:51.672Z,32.93
2022-08-11T21:32:17.785Z,33.12
2022-08-11T21:34:43.930Z,33.29
2022-08-11T21:37:10.074Z,33.40
2022-08-11T21:39:36.302Z,33.54
2022-08-11T21:42:02.478Z,33.53
2022-08-11T21:44:28.620Z,33.54
2022-08-11T21:46:54.742Z,33.70
2022-08-11T21:49:20.882Z,33.73
2022-08-11T21:51:47.037Z,33.76
2022-08-11T21:54:13.169Z,33.81
2022-08-11T21:56:39.309Z,33.93
2022-08-11T21:59:07.205Z,33.94
2022-08-11T22:01:34.683Z,34.11
2022-08-11T22:04:00.912Z,34.07
2022-08-11T22:06:27.230Z,34.13
2022-08-11T22:08:53.378Z,34.01
2022-08-11T22:11:31.870Z,34.06
2022-08-11T22:14:05.978Z,34.29
2022-08-11T22:16:34.017Z,34.27
2022-08-11T22:19:00.169Z,34.35
2022-08-11T22:22:02.371Z,34.36
2022-08-11T22:24:13.589Z,34.23
2022-08-11T22:26:47.613Z,34.67
2022-08-11T22:29:13.920Z,34.59
2022-08-11T22:31:40.370Z,34.67
2022-08-11T22:34:06.522Z,34.58
2022-08-11T22:36:32.670Z,34.46
2022-08-11T22:38:58.838Z,34.68
2022-08-11T22:41:24.974Z,34.51
2022-08-11T22:43:51.122Z,34.61
2022-08-11T22:46:17.280Z,34.70
2022-08-11T22:48:43.416Z,34.77
2022-08-11T22:51:09.566Z,34.78
2022-08-11T22:53:57.232Z,34.73
2022-08-11T22:56:21.901Z,34.67
2022-08-11T22:58:59.018Z,34.73
2022-08-11T23:01:25.195Z,34.65
2022-08-11T23:03:51.355Z,34.77
2022-08-11T23:06:17.527Z,34.66
2022-08-11T23:08:43.656Z,34.70
2022-08-11T23:11:09.804Z,34.41
2022-08-11T23:13:35.966Z,34.27
2022-08-11T23:16:02.094Z,34.33
2022-08-11T23:18:28.224Z,34.55
2022-08-11T23:20:57.567Z,34.57
2022-08-11T23:23:24.380Z,35.05
2022-08-11T23:25:50.512Z,35.34
2022-08-11T23:28:16.723Z,35.49
2022-08-11T23:30:42.854Z,35.67
2022-08-11T23:33:08.998Z,35.48
2022-08-11T23:35:38.701Z,35.72
2022-08-11T23:38:06.806Z,35.30
2022-08-11T23:40:32.946Z,35.10
2022-08-11T23:42:59.099Z,34.93
2022-08-11T23:45:25.229Z,34.54
2022-08-11T23:47:51.358Z,34.63
2022-08-11T23:50:17.519Z,34.34
2022-08-11T23:52:43.665Z,34.40
2022-08-11T23:55:09.810Z,34.23
2022-08-11T23:57:35.971Z,34.00
